This is the latest recevied weather packets stored in our database for station/object HB9BTL-13. If no packets are shown the sender has not sent any weather packets the latest 10 day(s).
| Time | Temp. | Humidity | Pressure | Rain* | Wind** | Luminosity | Snow |
|---|---|---|---|---|---|---|---|
| 1777485685 | 19.44° C | 33% | 1018.6 hPa | - | - | - | - |
| 1777483874 | 19.44° C | 32% | 1018.2 hPa | - | - | - | - |
| 1777482063 | 20.56° C | 34% | 1018.1 hPa | - | - | - | - |
| 1777481158 | 20.56° C | 34% | 1018.1 hPa | - | - | - | - |
| 1777480253 | 21.11° C | 34% | 1017.9 hPa | - | - | - | - |
| 1777479347 | 21.67° C | 36% | 1017.8 hPa | - | - | - | - |
| 1777472104 | 21.67° C | 41% | 1017.7 hPa | - | - | - | - |
| 1777471199 | 21.67° C | 42% | 1017.7 hPa | - | - | - | - |
| 1777469388 | 21.11° C | 44% | 1017.9 hPa | - | - | - | - |
| 1777468483 | 21.11° C | 44% | 1018 hPa | - | - | - | - |
| 1777467577 | 20.56° C | 46% | 1017.9 hPa | - | - | - | - |
| 1777465766 | 20° C | 48% | 1017.9 hPa | - | - | - | - |
| 1777462144 | 18.89° C | 52% | 1018.3 hPa | - | - | - | - |
| 1777461239 | 18.89° C | 52% | 1018.3 hPa | - | - | - | - |
| 1777460333 | 18.33° C | 52% | 1018.5 hPa | - | - | - | - |
| 1777459428 | 17.78° C | 53% | 1018.5 hPa | - | - | - | - |
| 1777458523 | 17.22° C | 54% | 1018.7 hPa | - | - | - | - |
| 1777457618 | 16.67° C | 54% | 1018.6 hPa | - | - | - | - |
| 1777456713 | 16.67° C | 55% | 1018.6 hPa | - | - | - | - |
| 1777454902 | 16.11° C | 55% | 1018.6 hPa | - | - | - | - |
| 1777453996 | 15.56° C | 54% | 1018.7 hPa | - | - | - | - |
| 1777453091 | 15.56° C | 55% | 1018.7 hPa | - | - | - | - |
| 1777451280 | 15.56° C | 56% | 1018.6 hPa | - | - | - | - |
| 1777450374 | 15° C | 55% | 1018.5 hPa | - | - | - | - |
| 1777449469 | 15° C | 56% | 1018.5 hPa | - | - | - | - |
* Rain since midnight (hover to see other rain measurements)
** Current wind speed in m/s (hover to see current wind gust speed)